Time;durP1;ratioP1;P1;durP2;ratioP2;P2;SDS_P1;SDS_P2;PMS_P1;PMS_P2;Temp;Humidity;BMP_temperature;BMP_pressure;BME280_temperature;BME280_humidity;BME280_pressure;Samples;Min_cycle;Max_cycle;Signal;HPM_P1;HPM_P2
2021/11/08 00:01:40;;;;;;;3.78;0.85;;;;;;;6.73;72.09;101207.38;6313807;22;20083;-78
2021/11/08 00:04:06;;;;;;;1.85;0.68;;;;;;;6.65;72.31;101196.78;6289788;22;20087;-78
2021/11/08 00:06:32;;;;;;;9.30;1.02;;;;;;;6.72;72.81;101219.31;6315503;22;20034;-77
2021/11/08 00:09:05;;;;;;;3.28;1.40;;;;;;;6.74;72.88;101217.19;6316399;22;20077;-78
2021/11/08 00:11:32;;;;;;;6.45;1.20;;;;;;;6.64;72.52;101184.22;6314148;22;20045;-78
2021/11/08 00:14:08;;;;;;;;;;;;;;;;;;;;;
2021/11/08 00:17:28;;;;;;;9.55;1.33;;;;;;;6.90;72.92;101217.69;6315967;22;20025;-78
2021/11/08 00:22:11;;;;;;;3.63;1.00;;;;;;;6.85;72.26;101217.50;6294754;22;20012;-79
2021/11/08 00:24:46;;;;;;;3.15;1.10;;;;;;;6.64;71.71;101189.66;6317964;22;20029;-80
2021/11/08 00:27:12;;;;;;;1.33;0.55;;;;;;;6.67;71.83;101200.09;6338437;22;20037;-81
2021/11/08 00:29:40;;;;;;;1.10;0.50;;;;;;;6.66;72.06;101203.88;6286685;22;20003;-80
2021/11/08 00:32:09;;;;;;;0.38;0.38;;;;;;;6.68;71.35;101223.50;6277433;22;20030;-78
2021/11/08 00:34:38;;;;;;;0.35;0.32;;;;;;;6.55;71.50;101208.13;6317397;22;19995;-79
2021/11/08 00:37:07;;;;;;;5.28;1.00;;;;;;;6.57;71.48;101213.34;6316477;22;20007;-79
2021/11/08 00:39:43;;;;;;;2.45;0.82;;;;;;;6.51;71.75;101197.91;6317495;22;20388;-77
2021/11/08 00:42:20;;;;;;;2.45;1.50;;;;;;;6.22;72.10;101159.44;6316662;22;20015;-80
2021/11/08 00:44:56;;;;;;;;;;;;;;;;;;;;;
2021/11/08 00:47:25;;;;;;;1.02;0.52;;;;;;;6.15;71.22;101173.09;6313554;22;20023;-84
2021/11/08 00:50:11;;;;;;;1.27;0.55;;;;;;;6.13;71.42;101182.50;6292730;22;20019;-83
2021/11/08 00:53:00;;;;;;;2.63;0.65;;;;;;;6.20;71.69;101200.41;6264897;22;20015;-83
2021/11/08 00:55:49;;;;;;;2.70;1.20;;;;;;;5.92;70.93;101162.75;6286742;22;20000;-81
2021/11/08 00:58:34;;;;;;;;;;;;;;;;;;;;;
2021/11/08 01:01:20;;;;;;;;;;;;;;;;;;;;;
2021/11/08 01:03:55;;;;;;;2.42;1.27;;;;;;;5.84;71.69;101185.53;6288117;22;20024;-78
2021/11/08 01:06:48;;;;;;;1.13;0.90;;;;;;;5.89;71.55;101198.47;6288340;22;20016;-78
2021/11/08 01:09:34;;;;;;;0.45;0.45;;;;;;;5.65;71.46;101170.16;6293966;22;20004;-81
2021/11/08 01:12:23;;;;;;;;;;;;;;;;;;;;;
2021/11/08 01:14:50;;;;;;;1.48;1.20;;;;;;;5.83;71.38;101185.75;6293009;22;20003;-81
2021/11/08 01:17:16;;;;;;;2.88;1.05;;;;;;;5.71;72.44;101174.72;6271554;22;20041;-82
2021/11/08 01:19:56;;;;;;;;;;;;;;;;;;;;;
2021/11/08 01:26:03;;;;;;;;;;;;;;;;;;;;;
2021/11/08 01:36:27;;;;;;;;;;;;;;;;;;;;;
2021/11/08 01:39:10;;;;;;;;;;;;;;;;;;;;;
2021/11/08 01:41:36;;;;;;;5.05;1.30;;;;;;;5.25;73.48;101176.56;6192529;23;20069;-77
2021/11/08 01:44:07;;;;;;;2.05;1.00;;;;;;;5.38;72.60;101206.34;6143376;23;20008;-80
2021/11/08 01:46:50;;;;;;;2.40;1.25;;;;;;;5.26;72.93;101199.91;6141469;23;20188;-76
2021/11/08 01:49:34;;;;;;;7.05;1.27;;;;;;;5.19;73.64;101193.69;6308667;22;20014;-77
2021/11/08 01:55:29;;;;;;;5.18;0.70;;;;;;;5.42;73.92;101204.88;6202473;23;20013;-82
2021/11/08 01:57:55;;;;;;;4.00;1.05;;;;;;;5.44;74.99;101193.00;6197492;23;20039;-76
2021/11/08 02:00:32;;;;;;;;;;;;;;;;;;;;;
2021/11/08 02:02:58;;;;;;;8.35;1.50;;;;;;;5.36;75.24;101192.19;6338262;22;20059;-75
2021/11/08 02:05:36;;;;;;;;;;;;;;;;;;;;;
2021/11/08 02:08:55;;;;;;;6.20;1.33;;;;;;;5.55;75.51;101198.59;6314354;22;20049;-74
2021/11/08 02:14:31;;;;;;;11.13;1.98;;;;;;;5.52;76.00;101192.75;6286933;22;19906;-74
2021/11/08 02:16:59;;;;;;;11.05;1.80;;;;;;;5.55;76.04;101204.00;6307343;22;20064;-75
2021/11/08 02:19:46;;;;;;;7.40;1.33;;;;;;;5.47;75.95;101189.84;6305271;22;20031;-75
2021/11/08 02:22:12;;;;;;;14.68;2.42;;;;;;;5.48;76.08;101199.66;6308155;22;20068;-74
2021/11/08 02:24:41;;;;;;;8.07;1.95;;;;;;;5.59;75.19;101231.53;6310166;22;19998;-74
2021/11/08 02:27:19;;;;;;;;;;;;;;;;;;;;;
2021/11/08 02:36:37;;;;;;;3.70;1.27;;;;;;;5.56;75.90;101231.97;6337519;22;20033;-84
2021/11/08 02:40:18;;;;;;;;;;;;;;;;;;;;;
2021/11/08 02:42:30;;;;;;;6.45;2.17;;;;;;;5.32;75.99;101209.91;6339115;22;20263;-82
2021/11/08 02:45:07;;;;;;;8.73;1.98;;;;;;;5.47;76.37;101225.94;6322639;22;20072;-81
2021/11/08 02:47:51;;;;;;;6.80;1.45;;;;;;;5.34;76.63;101196.97;6322787;22;20006;-82
2021/11/08 02:50:27;;;;;;;14.27;2.65;;;;;;;5.33;76.76;101184.47;6349464;22;20371;-82
2021/11/08 02:52:54;;;;;;;15.13;2.85;;;;;;;5.52;77.36;101219.88;6324642;22;20007;-78
2021/11/08 02:55:34;;;;;;;;;;;;;;;;;;;;;
2021/11/08 02:58:00;;;;;;;12.95;3.38;;;;;;;5.40;77.30;101207.00;6348536;22;20022;-77
2021/11/08 03:00:29;;;;;;;18.90;3.30;;;;;;;5.52;76.63;101211.72;6318730;22;20002;-77
2021/11/08 03:02:59;;;;;;;10.52;2.63;;;;;;;5.37;77.34;101191.13;6317748;22;20089;-78
2021/11/08 03:05:38;;;;;;;11.57;2.80;;;;;;;5.52;77.35;101203.59;6341251;22;20546;-77
2021/11/08 03:08:09;;;;;;;11.65;2.63;;;;;;;5.41;77.32;101181.50;6357060;22;19999;-77
2021/11/08 03:10:55;;;;;;;;;;;;;;;;;;;;;
2021/11/08 03:13:33;;;;;;;;;;;;;;;;;;;;;
2021/11/08 03:19:37;;;;;;;6.07;1.58;;;;;;;5.21;76.97;101162.59;6344680;22;20456;-78
2021/11/08 03:22:11;;;;;;;6.80;1.80;;;;;;;5.32;77.10;101171.13;6318117;22;20441;-78
2021/11/08 03:27:19;;;;;;;5.75;1.77;;;;;;;5.31;77.18;101166.72;6353683;22;20025;-78
2021/11/08 03:29:53;;;;;;;7.30;2.35;;;;;;;5.41;76.57;101180.69;6321791;22;20010;-78
2021/11/08 03:32:36;;;;;;;2.13;1.08;;;;;;;5.25;77.13;101146.72;6346779;22;20321;-78
2021/11/08 03:35:08;;;;;;;1.95;1.08;;;;;;;5.32;77.08;101161.09;6321784;22;19995;-77
2021/11/08 03:37:42;;;;;;;16.73;1.95;;;;;;;5.40;77.16;101179.84;6325591;22;20094;-78
2021/11/08 03:40:19;;;;;;;8.00;2.35;;;;;;;5.34;76.86;101174.44;6351378;22;20010;-77
2021/11/08 03:42:47;;;;;;;11.63;2.25;;;;;;;5.41;76.72;101181.50;6352198;22;19999;-77
2021/11/08 03:45:26;;;;;;;;;;;;;;;;;;;;;
2021/11/08 03:47:56;;;;;;;8.10;2.13;;;;;;;5.33;77.47;101151.91;6348145;22;20018;-78
2021/11/08 03:50:22;;;;;;;6.78;1.95;;;;;;;5.47;77.03;101168.16;6311744;22;20067;-79
2021/11/08 03:52:51;;;;;;;7.57;2.00;;;;;;;5.55;76.96;101168.75;6339339;22;19999;-79
2021/11/08 03:55:20;;;;;;;3.08;1.33;;;;;;;5.48;77.48;101150.84;6312387;22;20003;-78
2021/11/08 03:57:48;;;;;;;6.93;1.90;;;;;;;5.52;76.91;101160.19;6317084;22;20011;-77
2021/11/08 04:00:18;;;;;;;8.82;1.90;;;;;;;5.54;77.07;101160.81;6343488;22;20013;-78
2021/11/08 04:02:54;;;;;;;;;;;;;;;;;;;;;
2021/11/08 04:05:22;;;;;;;5.18;2.05;;;;;;;5.60;76.88;101178.94;6319989;22;20087;-79
2021/11/08 04:07:55;;;;;;;4.60;1.10;;;;;;;5.50;76.74;101162.28;6318812;22;19995;-80
2021/11/08 04:10:25;;;;;;;5.65;0.93;;;;;;;5.55;76.61;101181.50;6343426;22;20003;-77
2021/11/08 04:13:03;;;;;;;;;;;;;;;;;;;;;
2021/11/08 04:22:58;;;;;;;0.70;0.35;;;;;;;5.19;75.75;101134.03;6206615;22;20010;-79
2021/11/08 04:25:28;;;;;;;0.47;0.47;;;;;;;5.27;75.92;101169.06;6343635;22;20003;-78
2021/11/08 04:27:54;;;;;;;0.45;0.40;;;;;;;5.09;76.32;101158.03;6344374;22;20001;-79
2021/11/08 04:30:29;;;;;;;0.20;0.20;;;;;;;4.91;76.11;101145.97;6316216;22;20003;-80
2021/11/08 04:40:36;;;;;;;0.73;0.38;;;;;;;4.96;75.22;101167.00;6326031;22;20010;-79
2021/11/08 04:51:28;;;;;;;3.00;1.10;;;;;;;4.89;76.11;101177.84;6298864;22;20023;-80
2021/11/08 04:54:27;;;;;;;1.85;1.17;;;;;;;4.96;76.29;101186.81;6326169;22;20003;-78
2021/11/08 05:30:29;;;;;;;3.28;1.10;;;;;;;4.82;76.25;101166.19;6348335;22;20437;-73
2021/11/08 05:32:51;;;;;;;4.60;1.13;;;;;;;4.84;76.41;101170.34;6340476;22;20057;-73
2021/11/08 05:35:19;;;;;;;2.42;1.05;;;;;;;4.89;76.28;101175.13;6343028;22;20006;-73
2021/11/08 05:37:46;;;;;;;1.80;1.15;;;;;;;4.86;76.27;101167.44;6314669;22;20002;-74
2021/11/08 05:40:17;;;;;;;5.40;0.88;;;;;;;4.96;76.65;101172.44;6340764;22;20002;-73
2021/11/08 05:42:43;;;;;;;4.25;1.08;;;;;;;4.88;77.20;101155.34;6314911;22;20082;-73
2021/11/08 05:45:12;;;;;;;2.95;2.10;;;;;;;5.00;76.66;101169.09;6343085;22;20005;-73
2021/11/08 05:47:38;;;;;;;3.60;1.48;;;;;;;4.95;77.03;101159.91;6341205;22;20002;-73
2021/11/08 05:50:10;;;;;;;5.55;1.38;;;;;;;4.92;76.16;101163.91;6335171;22;19998;-73
2021/11/08 05:52:35;;;;;;;2.72;1.23;;;;;;;4.89;76.26;101167.84;6335334;22;19998;-72
2021/11/08 05:55:05;;;;;;;1.10;0.90;;;;;;;4.97;76.80;101174.09;6304520;22;19999;-72
2021/11/08 06:49:43;;;;;;;0.30;0.20;;;;;;;4.76;76.25;101158.88;6334368;22;20325;-74
2021/11/08 06:52:11;;;;;;;1.65;0.85;;;;;;;4.74;76.12;101161.00;6333808;22;20094;-74
2021/11/08 06:54:45;;;;;;;1.00;0.85;;;;;;;4.74;76.80;101158.28;6331582;22;20425;-75
2021/11/08 06:57:14;;;;;;;2.05;1.92;;;;;;;4.66;76.47;101154.75;6280513;22;20011;-73
2021/11/08 06:59:47;;;;;;;2.03;1.25;;;;;;;4.70;76.14;101153.28;6307532;22;20002;-74
2021/11/08 07:02:14;;;;;;;1.08;0.93;;;;;;;4.83;76.08;101170.56;6331684;22;19999;-73
2021/11/08 07:04:40;;;;;;;1.00;1.00;;;;;;;4.81;76.62;101159.13;6303786;22;20071;-76
2021/11/08 07:07:12;;;;;;;0.77;0.68;;;;;;;4.81;75.77;101149.09;6334603;22;20078;-77
2021/11/08 07:09:58;;;;;;;0.57;0.57;;;;;;;4.95;75.82;101170.75;6310113;22;19998;-77
2021/11/08 07:12:34;;;;;;;;;;;;;;;;;;;;;
2021/11/08 07:15:12;;;;;;;;;;;;;;;;;;;;;
2021/11/08 07:17:40;;;;;;;1.75;0.68;;;;;;;4.96;75.84;101173.25;6335784;22;20070;-73
2021/11/08 07:20:50;;;;;;;0.60;0.50;;;;;;;5.06;75.55;101178.25;6308801;22;20038;-74
2021/11/08 07:23:16;;;;;;;0.70;0.70;;;;;;;5.09;76.30;101177.00;6301520;22;20016;-74
2021/11/08 07:25:44;;;;;;;0.63;0.63;;;;;;;5.22;76.54;101190.53;6338602;22;20081;-75
2021/11/08 07:28:11;;;;;;;2.00;1.70;;;;;;;5.31;76.31;101196.56;6334917;22;20056;-74
2021/11/08 07:30:40;;;;;;;4.88;2.55;;;;;;;5.38;76.38;101198.22;6307900;22;20011;-74
2021/11/08 07:33:13;;;;;;;2.65;1.77;;;;;;;5.36;75.61;101184.03;6336209;22;20015;-74
2021/11/08 07:36:18;;;;;;;1.35;1.25;;;;;;;5.55;75.81;101186.91;6333244;22;20010;-73
2021/11/08 07:39:16;;;;;;;1.17;1.08;;;;;;;5.73;75.97;101197.88;6310172;22;20003;-73
2021/11/08 07:42:07;;;;;;;1.30;1.20;;;;;;;5.77;75.79;101190.16;6264353;22;20013;-73
2021/11/08 07:44:38;;;;;;;2.53;1.08;;;;;;;5.81;74.94;101185.13;6230707;22;20007;-74
2021/11/08 07:47:04;;;;;;;5.57;1.67;;;;;;;5.91;75.13;101190.91;6304414;22;20078;-73
2021/11/08 07:49:36;;;;;;;4.93;1.88;;;;;;;6.04;74.55;101195.50;6335482;22;20292;-73
2021/11/08 07:52:45;;;;;;;3.53;1.48;;;;;;;6.24;74.48;101195.38;6283295;22;20014;-72
2021/11/08 07:56:03;;;;;;;;;;;;;;;;;;;;;
2021/11/08 08:02:36;;;;;;;2.63;1.02;;;;;;;6.65;74.76;101207.63;6151819;23;20503;-74
2021/11/08 08:05:11;;;;;;;1.13;1.00;;;;;;;6.58;73.63;101185.94;6191618;23;20008;-74
2021/11/08 08:08:08;;;;;;;2.88;1.40;;;;;;;6.70;74.12;101204.25;6259302;22;20022;-74
2021/11/08 08:11:02;;;;;;;;;;;;;;;;;;;;;
2021/11/08 08:13:49;;;;;;;3.97;2.08;;;;;;;6.85;74.20;101212.94;6272189;22;20143;-78
2021/11/08 08:16:29;;;;;;;5.45;1.83;;;;;;;6.93;72.90;101228.13;6285159;22;20011;-76
2021/11/08 08:19:17;;;;;;;2.95;1.65;;;;;;;6.91;73.48;101224.81;6334195;22;20007;-77
2021/11/08 08:22:01;;;;;;;2.15;1.42;;;;;;;6.99;73.30;101213.63;6308746;22;20068;-77
2021/11/08 08:24:38;;;;;;;;;;;;;;;;;;;;;
2021/11/08 08:27:42;;;;;;;5.70;1.60;;;;;;;7.21;73.36;101215.94;6337240;22;20089;-77
2021/11/08 08:30:35;;;;;;;3.40;1.58;;;;;;;7.53;73.53;101234.88;6255548;22;20008;-76
2021/11/08 08:33:06;;;;;;;5.45;1.70;;;;;;;7.38;72.45;101203.44;6335510;22;20078;-76
2021/11/08 08:35:39;;;;;;;1.65;1.20;;;;;;;7.54;72.32;101220.22;6320956;22;20354;-78
2021/11/08 08:38:09;;;;;;;3.78;1.48;;;;;;;7.73;72.86;101221.88;6295775;22;20018;-78
2021/11/08 08:40:36;;;;;;;1.00;0.98;;;;;;;7.90;72.29;101230.28;6307670;22;20011;-77
2021/11/08 08:43:07;;;;;;;4.40;1.90;;;;;;;7.86;72.24;101208.09;6303630;22;20007;-76
2021/11/08 08:45:35;;;;;;;4.03;1.90;;;;;;;7.92;72.13;101219.97;6307168;22;20014;-77
2021/11/08 08:48:06;;;;;;;6.57;2.00;;;;;;;7.78;71.28;101192.09;6307483;22;20125;-78
2021/11/08 08:50:31;;;;;;;1.50;1.40;;;;;;;7.84;72.15;101202.06;6305488;22;20072;-75
2021/11/08 08:52:57;;;;;;;1.75;1.23;;;;;;;7.93;71.29;101207.19;6306747;22;19999;-76
2021/11/08 08:55:28;;;;;;;7.53;1.63;;;;;;;7.97;71.30;101220.13;6308153;22;19999;-77
2021/11/08 08:58:31;;;;;;;6.18;1.50;;;;;;;8.13;71.26;101232.28;6334257;22;20022;-77
2021/11/08 09:01:00;;;;;;;2.80;1.88;;;;;;;8.15;71.05;101213.81;6333695;22;20014;-79
2021/11/08 09:03:25;;;;;;;7.88;1.77;;;;;;;8.31;70.93;101211.47;6306776;22;20060;-77
2021/11/08 09:05:51;;;;;;;2.38;1.48;;;;;;;8.46;71.00;101227.47;6336012;22;20290;-77
2021/11/08 09:08:38;;;;;;;3.95;1.95;;;;;;;8.54;70.60;101208.88;6337316;22;20002;-77
2021/11/08 09:11:12;;;;;;;5.95;1.98;;;;;;;8.62;70.51;101204.16;6288242;22;20007;-79
2021/11/08 09:13:48;;;;;;;;;;;;;;;;;;;;;
2021/11/08 09:19:14;;;;;;;5.07;1.77;;;;;;;9.36;70.21;101200.97;6281895;22;20026;-77
2021/11/08 09:21:40;;;;;;;5.55;1.63;;;;;;;9.58;69.78;101180.19;6309672;22;20000;-77
2021/11/08 09:24:06;;;;;;;2.88;1.65;;;;;;;10.03;69.56;101203.22;6306462;22;20015;-77
2021/11/08 09:30:25;;;;;;;;;;;;;;;;;;;;;
2021/11/08 09:33:23;;;;;;;1.77;1.20;;;;;;;10.76;67.54;101194.41;6219519;23;20483;-77
2021/11/08 09:36:24;;;;;;;1.98;1.05;;;;;;;10.84;67.65;101191.28;6181635;23;20451;-75
2021/11/08 09:39:21;;;;;;;;;;;;;;;;;;;;;
2021/11/08 09:42:09;;;;;;;;;;;;;;;;;;;;;
2021/11/08 09:47:41;;;;;;;3.22;1.10;;;;;;;10.48;66.80;101231.69;6103495;23;20022;-81
2021/11/08 09:50:21;;;;;;;1.80;0.98;;;;;;;10.44;67.23;101225.88;6080052;23;20085;-76
2021/11/08 09:53:56;;;;;;;2.40;1.30;;;;;;;10.56;67.49;101234.03;6100037;23;20503;-80
2021/11/08 09:56:50;;;;;;;1.13;1.02;;;;;;;10.52;67.19;101199.22;5976431;23;20447;-78
2021/11/08 09:59:22;;;;;;;1.23;0.95;;;;;;;10.70;66.76;101222.75;6265654;22;20224;-79
2021/11/08 10:01:55;;;;;;;2.08;0.73;;;;;;;10.63;66.70;101196.41;6313071;22;20150;-80
2021/11/08 10:04:48;;;;;;;0.73;0.63;;;;;;;10.91;66.66;101230.25;6312638;22;20039;-81
2021/11/08 10:10:23;;;;;;;0.30;0.30;;;;;;;11.13;66.53;101232.22;6154410;23;20012;-78
2021/11/08 10:13:39;;;;;;;2.53;1.45;;;;;;;11.00;66.40;101206.84;6187993;23;20003;-79
2021/11/08 10:23:35;;;;;;;0.68;0.47;;;;;;;11.21;65.73;101212.63;6067120;23;20385;-77
2021/11/08 10:26:30;;;;;;;0.82;0.60;;;;;;;11.48;66.21;101236.59;6133775;23;20096;-77
2021/11/08 10:32:36;;;;;;;1.25;0.50;;;;;;;11.71;65.68;101199.91;6086316;23;20009;-76
2021/11/08 10:35:42;;;;;;;;;;;;;;;;;;;;;
2021/11/08 10:38:06;;;;;;;0.50;0.30;;;;;;;12.33;65.35;101206.94;6044696;23;20093;-77
2021/11/08 10:40:39;;;;;;;1.03;0.83;;;;;;;12.65;64.80;101222.59;6171164;23;20138;-75
2021/11/08 10:43:05;;;;;;;0.70;0.60;;;;;;;12.83;64.88;101204.91;6186763;23;20008;-77
2021/11/08 10:45:30;;;;;;;3.05;0.57;;;;;;;13.23;64.60;101220.03;6272731;22;20084;-76
2021/11/08 10:48:00;;;;;;;3.15;0.82;;;;;;;13.91;65.33;101229.50;6275422;22;20102;-76
2021/11/08 10:51:19;;;;;;;0.82;0.80;;;;;;;15.33;65.09;101218.94;6277661;22;20449;-77
2021/11/08 10:54:43;;;;;;;1.63;1.23;;;;;;;16.29;61.50;101211.69;6151193;23;20013;-77
2021/11/08 10:57:56;;;;;;;2.92;1.10;;;;;;;16.91;59.75;101232.25;6086837;22;20029;-77
2021/11/08 11:04:01;;;;;;;0.93;0.90;;;;;;;16.60;57.19;101203.19;6159761;22;20805;-77
2021/11/08 11:09:46;;;;;;;4.90;2.42;;;;;;;16.12;54.58;101225.84;6245096;23;20012;-77
2021/11/08 11:19:23;;;;;;;6.78;1.90;;;;;;;15.46;54.12;101220.31;6090320;23;20033;-80
2021/11/08 11:22:00;;;;;;;2.63;1.40;;;;;;;14.98;54.89;101208.78;6123266;23;20010;-78
2021/11/08 11:24:48;;;;;;;2.03;1.42;;;;;;;14.75;55.87;101210.19;6231403;23;20005;-77
2021/11/08 11:27:29;;;;;;;4.40;1.30;;;;;;;14.73;56.97;101223.38;6277900;22;20003;-77
2021/11/08 11:30:15;;;;;;;8.13;2.25;;;;;;;14.75;57.08;101216.50;6286500;22;20006;-78
2021/11/08 11:32:54;;;;;;;4.70;2.13;;;;;;;14.71;56.81;101201.63;6285893;22;20002;-77
2021/11/08 11:35:20;;;;;;;13.35;2.17;;;;;;;14.85;57.14;101193.66;6284538;22;20000;-76
2021/11/08 11:38:07;;;;;;;7.57;1.80;;;;;;;14.98;57.41;101182.09;6310783;22;20029;-79
2021/11/08 11:40:42;;;;;;;5.05;2.10;;;;;;;15.19;57.11;101204.09;6284829;22;20011;-79
2021/11/08 11:43:19;;;;;;;4.97;2.20;;;;;;;15.31;57.19;101192.78;6281804;22;19999;-78
2021/11/08 11:46:08;;;;;;;3.28;1.30;;;;;;;15.47;56.62;101199.88;6309482;22;20014;-78
2021/11/08 11:52:48;;;;;;;4.80;1.55;;;;;;;15.52;56.01;101202.63;6271586;22;20067;-77
2021/11/08 11:55:19;;;;;;;4.30;1.67;;;;;;;15.23;56.14;101182.31;6164335;23;20001;-79
2021/11/08 11:58:00;;;;;;;5.90;2.60;;;;;;;15.24;56.73;101195.81;6162742;23;20016;-80
2021/11/08 12:00:58;;;;;;;7.28;2.33;;;;;;;15.05;57.14;101176.28;6162339;23;20087;-77
2021/11/08 12:03:33;;;;;;;;;;;;;;;;;;;;;
2021/11/08 12:07:10;;;;;;;;;;;;;;;;;;;;;
2021/11/08 12:13:21;;;;;;;3.13;1.23;;;;;;;14.48;58.47;101178.19;6135213;23;20552;-78
2021/11/08 12:19:36;;;;;;;6.63;1.13;;;;;;;14.39;59.55;101186.16;6066387;23;20006;-75
2021/11/08 12:23:11;;;;;;;;;;;;;;;;;;;;;
2021/11/08 12:29:32;;;;;;;15.82;1.92;;;;;;;13.81;60.59;101163.47;6092699;23;20077;-78
2021/11/08 12:32:04;;;;;;;12.77;2.53;;;;;;;13.85;60.66;101164.59;6128734;23;20015;-77
2021/11/08 12:34:47;;;;;;;;;;;;;;;;;;;;;
2021/11/08 12:48:17;;;;;;;6.93;2.10;;;;;;;13.98;61.21;101153.09;6099178;23;20022;-76
2021/11/08 13:02:07;;;;;;;;;;;;;;;;;;;;;
2021/11/08 13:18:50;;;;;;;10.70;1.40;;;;;;;13.78;63.25;101121.72;5094325;28;20039;-75
2021/11/08 13:21:22;;;;;;;10.02;2.03;;;;;;;13.77;63.38;101128.28;5121015;28;20043;-75
2021/11/08 13:23:55;;;;;;;4.45;1.58;;;;;;;13.75;63.39;101146.97;5127204;27;20023;-75
2021/11/08 13:26:27;;;;;;;5.30;1.73;;;;;;;13.59;64.93;101142.50;5117063;28;20027;-75
2021/11/08 13:28:53;;;;;;;5.72;1.33;;;;;;;13.48;65.12;101133.41;5123823;27;20039;-76
2021/11/08 13:31:20;;;;;;;3.60;1.70;;;;;;;13.41;65.42;101139.13;5127294;28;20461;-76
2021/11/08 13:33:53;;;;;;;6.82;1.58;;;;;;;13.42;65.35;101140.81;5118863;28;20031;-75
2021/11/08 13:36:19;;;;;;;3.97;1.52;;;;;;;13.46;65.73;101145.75;5122643;28;20024;-75
2021/11/08 13:38:52;;;;;;;4.22;1.60;;;;;;;13.48;66.12;101160.03;5129615;28;20037;-77
2021/11/08 13:41:26;;;;;;;4.13;1.13;;;;;;;13.43;66.70;101142.47;5134529;28;20517;-77
2021/11/08 13:43:56;;;;;;;13.07;1.55;;;;;;;13.37;67.09;101134.44;5136476;27;20043;-76
2021/11/08 13:46:40;;;;;;;;;;;;;;;;;;;;;
2021/11/08 13:49:12;;;;;;;6.10;1.58;;;;;;;13.36;67.90;101139.13;5122736;28;20071;-74
2021/11/08 13:51:46;;;;;;;9.40;1.70;;;;;;;13.34;68.00;101132.22;5142180;27;20069;-80
2021/11/08 13:54:25;;;;;;;2.28;1.23;;;;;;;13.42;68.03;101140.81;5128508;28;20021;-73
2021/11/08 13:56:57;;;;;;;5.68;1.10;;;;;;;13.44;68.43;101137.78;5131083;28;20020;-75
2021/11/08 13:59:26;;;;;;;9.45;1.50;;;;;;;13.46;67.95;101129.28;5115939;27;20469;-74
2021/11/08 14:02:01;;;;;;;2.75;1.15;;;;;;;13.54;68.08;101131.50;5122479;27;20031;-75
2021/11/08 14:04:32;;;;;;;1.13;0.77;;;;;;;13.54;67.85;101123.28;5124294;28;20481;-74
2021/11/08 14:06:58;;;;;;;7.60;1.60;;;;;;;13.50;68.51;101122.16;5118399;28;20385;-75
2021/11/08 14:09:24;;;;;;;3.97;1.30;;;;;;;13.42;68.50;101115.25;5122627;27;20024;-76
2021/11/08 14:11:55;;;;;;;6.00;1.35;;;;;;;13.39;68.54;101124.84;5120150;28;20036;-76
2021/11/08 14:14:37;;;;;;;3.97;0.93;;;;;;;13.30;69.02;101120.91;5124495;28;20020;-77
2021/11/08 17:52:36;;;;;;;4.95;4.60;;;;;;;12.81;80.34;101137.69;4716347;26;20059;-79
2021/11/08 17:55:29;;;;;;;3.80;3.47;;;;;;;12.62;79.42;101110.63;4922751;29;20066;-78
2021/11/08 17:58:23;;;;;;;3.45;3.25;;;;;;;12.84;79.75;101140.69;4937618;28;20054;-78
2021/11/08 18:07:04;;;;;;;;;;;;;;;;;;;;;
2021/11/08 18:10:00;;;;;;;6.63;4.30;;;;;;;12.80;79.70;101155.22;4957463;28;20039;-79
2021/11/08 18:12:29;;;;;;;5.18;4.88;;;;;;;12.63;80.08;101139.75;4936762;29;20035;-80
2021/11/08 18:15:38;;;;;;;4.93;4.63;;;;;;;12.65;80.40;101128.50;4962256;28;20058;-78
2021/11/08 18:18:52;;;;;;;4.88;4.68;;;;;;;12.60;80.30;101123.81;4962898;28;20047;-80
2021/11/08 18:28:51;;;;;;;;;;;;;;;;;;;;;
2021/11/08 18:31:46;;;;;;;5.57;5.07;;;;;;;12.77;80.49;101155.75;4869925;29;20044;-74
2021/11/08 18:34:47;;;;;;;5.55;5.22;;;;;;;12.78;81.06;101151.94;4898957;29;20024;-75
2021/11/08 18:37:35;;;;;;;6.43;4.70;;;;;;;12.80;81.01;101157.97;4896399;29;20507;-75
2021/11/08 18:40:46;;;;;;;4.30;4.10;;;;;;;12.73;80.62;101138.97;4939265;28;20479;-75
2021/11/08 18:44:03;;;;;;;;;;;;;;;;;;;;;
2021/11/08 18:46:59;;;;;;;5.53;5.07;;;;;;;12.92;80.88;101153.09;4925714;28;20038;-75
2021/11/08 18:52:43;;;;;;;5.38;4.53;;;;;;;12.87;80.42;101133.88;4941975;28;20051;-74
2021/11/08 18:58:35;;;;;;;6.78;6.20;;;;;;;12.85;81.08;101147.00;4946848;28;20082;-75
2021/11/08 19:01:36;;;;;;;;;;;;;;;;;;;;;
2021/11/08 19:10:37;;;;;;;;;;;;;;;;;;;;;
2021/11/08 19:14:02;;;;;;;;;;;;;;;;;;;;;
2021/11/08 19:16:52;;;;;;;;;;;;;;;;;;;;;
2021/11/08 19:19:40;;;;;;;6.60;6.20;;;;;;;12.86;81.18;101156.91;4950700;28;20161;-75
2021/11/08 19:22:46;;;;;;;7.93;7.43;;;;;;;12.89;81.57;101162.72;4950619;28;20042;-75
2021/11/08 19:25:23;;;;;;;6.82;6.43;;;;;;;12.78;81.32;101140.94;4942752;28;20027;-75
2021/11/08 19:27:51;;;;;;;6.28;5.85;;;;;;;12.85;81.03;101158.00;4950534;28;20027;-77
2021/11/08 19:30:17;;;;;;;6.93;6.53;;;;;;;12.96;81.80;101167.97;4929097;28;20031;-74
2021/11/08 19:32:59;;;;;;;7.93;7.22;;;;;;;12.85;81.14;101149.75;4942924;29;20062;-73
2021/11/08 19:38:52;;;;;;;7.10;6.57;;;;;;;12.95;81.14;101155.31;4950949;28;20550;-75
2021/11/08 19:44:38;;;;;;;6.45;6.05;;;;;;;12.92;81.55;101148.44;4930152;28;20052;-74
2021/11/08 19:48:02;;;;;;;10.85;6.78;;;;;;;12.91;81.25;101140.50;4945641;28;20035;-73
2021/11/08 19:50:35;;;;;;;9.02;8.43;;;;;;;12.72;81.45;101121.69;4945035;28;20108;-74
2021/11/08 19:53:40;;;;;;;10.70;9.68;;;;;;;12.90;81.92;101145.13;4939054;28;20035;-74
2021/11/08 19:56:15;;;;;;;8.90;8.23;;;;;;;12.70;82.04;101123.88;4955623;28;20035;-76
2021/11/08 20:00:05;;;;;;;7.40;6.90;;;;;;;12.89;81.46;101148.13;4938988;28;20039;-77
2021/11/08 20:03:19;;;;;;;;;;;;;;;;;;;;;
2021/11/08 20:05:52;;;;;;;5.68;5.32;;;;;;;12.81;81.30;101145.91;4952200;28;20031;-73
2021/11/08 20:11:52;;;;;;;4.45;4.15;;;;;;;12.71;81.12;101130.19;4892424;29;20098;-76
2021/11/08 20:15:14;;;;;;;10.68;6.40;;;;;;;12.67;81.76;101135.34;4951542;28;20043;-74
2021/11/08 20:18:40;;;;;;;6.85;6.45;;;;;;;12.54;81.59;101114.69;4950122;28;20035;-76
2021/11/08 20:21:49;;;;;;;7.20;6.80;;;;;;;12.55;81.99;101121.00;4950995;28;20021;-76
2021/11/08 20:24:35;;;;;;;8.38;7.57;;;;;;;12.50;81.42;101120.94;4890282;29;20123;-76
2021/11/08 20:27:02;;;;;;;7.30;6.82;;;;;;;12.48;81.34;101120.41;4935603;28;20037;-76
2021/11/08 20:29:41;;;;;;;7.75;6.97;;;;;;;12.39;81.85;101120.88;4939157;28;20971;-75
2021/11/08 20:58:42;;;;;;;7.57;7.18;;;;;;;12.20;82.95;101114.13;4934688;28;20062;-75
2021/11/08 21:01:06;;;;;;;;;;;;;;;;;;;;;
2021/11/08 21:04:30;;;;;;;;;;;;;;;;;;;;;
2021/11/08 21:12:33;;;;;;;7.18;6.80;;;;;;;12.47;82.53;101140.69;4921661;28;20038;-77
2021/11/08 21:15:13;;;;;;;;;;;;;;;;;;;;;
2021/11/08 21:17:41;;;;;;;7.22;6.82;;;;;;;12.36;82.75;101107.69;4947245;29;20430;-80
2021/11/08 21:20:35;;;;;;;;;;;;;;;;;;;;;
2021/11/08 21:23:01;;;;;;;8.30;7.35;;;;;;;12.44;82.98;101113.78;4956349;28;20118;-83
2021/11/08 21:26:14;;;;;;;;;;;;;;;;;;;;;
2021/11/08 21:40:31;;;;;;;;;;;;;;;;;;;;;
2021/11/08 21:43:10;;;;;;;7.53;7.03;;;;;;;12.67;82.84;101160.06;4952745;28;20102;-79
2021/11/08 21:45:41;;;;;;;8.00;7.47;;;;;;;12.53;83.20;101134.97;4954768;28;20023;-76
2021/11/08 21:48:08;;;;;;;8.05;7.45;;;;;;;12.50;83.22;101129.19;4950006;28;20098;-75
2021/11/08 21:50:49;;;;;;;8.30;7.60;;;;;;;12.61;83.31;101147.38;4946948;28;20442;-79
2021/11/08 21:54:12;;;;;;;;;;;;;;;;;;;;;
2021/11/08 21:57:08;;;;;;;;;;;;;;;;;;;;;
2021/11/08 21:59:55;;;;;;;7.75;7.25;;;;;;;12.64;83.18;101146.03;4908947;29;20111;-79
2021/11/08 22:02:21;;;;;;;8.48;7.85;;;;;;;12.66;82.93;101144.69;4955873;28;20035;-80
2021/11/08 22:05:07;;;;;;;;;;;;;;;;;;;;;
2021/11/08 22:07:46;;;;;;;;;;;;;;;;;;;;;
2021/11/08 22:11:04;;;;;;;;;;;;;;;;;;;;;
2021/11/08 22:14:22;;;;;;;;;;;;;;;;;;;;;
2021/11/08 22:17:24;;;;;;;6.03;5.63;;;;;;;12.82;82.68;101142.91;4954145;28;20485;-78
2021/11/08 22:20:31;;;;;;;;;;;;;;;;;;;;;
2021/11/08 22:22:58;;;;;;;8.23;7.70;;;;;;;12.83;82.72;101132.72;4925577;28;20110;-80
2021/11/08 22:25:24;;;;;;;9.90;8.90;;;;;;;12.94;82.37;101148.19;4955231;28;20031;-82
2021/11/08 22:27:53;;;;;;;8.90;8.15;;;;;;;12.86;82.40;101126.72;4956157;28;20090;-79
2021/11/08 22:30:50;;;;;;;;;;;;;;;;;;;;;
2021/11/08 22:33:18;;;;;;;7.93;7.43;;;;;;;13.02;82.80;101155.91;4957832;28;20110;-78
2021/11/08 22:36:14;;;;;;;6.20;5.90;;;;;;;13.01;82.16;101135.06;4953525;28;20031;-78
2021/11/08 22:38:58;;;;;;;6.93;6.63;;;;;;;13.13;82.70;101148.59;4958858;28;20039;-78